<?xml version="1.0" encoding="UTF-8" standalone="no" ?>
<gpx xmlns="http://www.topografix.com/GPX/1/1" xmlns:xsi="http://www.w3.org/2001/XMLSchema-instance" xsi:schemaLocation="http://www.topografix.com/GPX/1/1 http://www.topografix.com/GPX/1/1/gpx.xsd" version="1.1" creator="VisuGPX - https://www.visugpx.com">
  <metadata>
    <name>2023-12-07-46-espedaillac-après-midi</name>
    <desc><![CDATA[Tracée au nord d'Espédaillac, une petite randonnée de 5 km sans difficulté, de beaux sentiers bordés de murs en pierres sèches sous les pieds pour traverser les mas d'Ourgnaguel et mas de Béral]]></desc>
  </metadata>
  <trk>
    <name><![CDATA[--Espédaillac-- OR-5434313:A.M]]></name>
    <trkseg>
      <trkpt lat="44.64101" lon="1.77377">
        <ele>352</ele>
        <time>2015-11-07T00:13:42Z</time>
      </trkpt>
      <trkpt lat="44.64313" lon="1.77427">
        <ele>348</ele>
        <time>2015-11-07T00:15:42Z</time>
      </trkpt>
      <trkpt lat="44.64508" lon="1.77174">
        <ele>343</ele>
        <time>2015-11-07T00:17:42Z</time>
      </trkpt>
      <trkpt lat="44.64612" lon="1.7699">
        <ele>350</ele>
        <time>2015-11-07T00:19:42Z</time>
      </trkpt>
      <trkpt lat="44.64664" lon="1.76968">
        <ele>351</ele>
        <time>2015-11-07T00:21:42Z</time>
      </trkpt>
      <trkpt lat="44.64777" lon="1.76814">
        <ele>350</ele>
        <time>2015-11-07T00:23:42Z</time>
      </trkpt>
      <trkpt lat="44.64866" lon="1.76663">
        <ele>350</ele>
        <time>2015-11-07T00:25:42Z</time>
      </trkpt>
      <trkpt lat="44.65037" lon="1.76599">
        <ele>347</ele>
        <time>2015-11-07T00:27:42Z</time>
      </trkpt>
      <trkpt lat="44.65192" lon="1.76625">
        <ele>352</ele>
        <time>2015-11-07T00:29:42Z</time>
      </trkpt>
      <trkpt lat="44.65247" lon="1.76582">
        <ele>355</ele>
        <time>2015-11-07T00:31:42Z</time>
      </trkpt>
      <trkpt lat="44.65293" lon="1.76603">
        <ele>354</ele>
        <time>2015-11-07T00:33:42Z</time>
      </trkpt>
      <trkpt lat="44.654" lon="1.76539">
        <ele>350</ele>
        <time>2015-11-07T00:35:42Z</time>
      </trkpt>
      <trkpt lat="44.6544" lon="1.7647">
        <ele>350</ele>
        <time>2015-11-07T00:37:42Z</time>
      </trkpt>
      <trkpt lat="44.65519" lon="1.76423">
        <ele>347</ele>
        <time>2015-11-07T00:39:42Z</time>
      </trkpt>
      <trkpt lat="44.6562" lon="1.76397">
        <ele>345</ele>
        <time>2015-11-07T00:41:42Z</time>
      </trkpt>
      <trkpt lat="44.65708" lon="1.7638">
        <ele>341</ele>
        <time>2015-11-07T00:43:42Z</time>
      </trkpt>
      <trkpt lat="44.65766" lon="1.76423">
        <ele>339</ele>
        <time>2015-11-07T00:45:42Z</time>
      </trkpt>
      <trkpt lat="44.65763" lon="1.76488">
        <ele>336</ele>
        <time>2015-11-07T00:47:42Z</time>
      </trkpt>
      <trkpt lat="44.6569" lon="1.76586">
        <ele>338</ele>
        <time>2015-11-07T00:49:42Z</time>
      </trkpt>
      <trkpt lat="44.65662" lon="1.76775">
        <ele>336</ele>
        <time>2015-11-07T00:51:42Z</time>
      </trkpt>
      <trkpt lat="44.65626" lon="1.76839">
        <ele>336</ele>
        <time>2015-11-07T00:53:42Z</time>
      </trkpt>
      <trkpt lat="44.65549" lon="1.76835">
        <ele>337</ele>
        <time>2015-11-07T00:55:42Z</time>
      </trkpt>
      <trkpt lat="44.65611" lon="1.76925">
        <ele>330</ele>
        <time>2015-11-07T00:57:42Z</time>
      </trkpt>
      <trkpt lat="44.65711" lon="1.77093">
        <ele>323</ele>
        <time>2015-11-07T00:59:42Z</time>
      </trkpt>
      <trkpt lat="44.65702" lon="1.77161">
        <ele>323</ele>
        <time>2015-11-07T01:01:42Z</time>
      </trkpt>
      <trkpt lat="44.65656" lon="1.772">
        <ele>325</ele>
        <time>2015-11-07T01:03:42Z</time>
      </trkpt>
      <trkpt lat="44.65675" lon="1.77303">
        <ele>323</ele>
        <time>2015-11-07T01:05:42Z</time>
      </trkpt>
      <trkpt lat="44.65598" lon="1.7732">
        <ele>321</ele>
        <time>2015-11-07T01:07:42Z</time>
      </trkpt>
      <trkpt lat="44.65379" lon="1.7714">
        <ele>325</ele>
        <time>2015-11-07T01:09:42Z</time>
      </trkpt>
      <trkpt lat="44.65229" lon="1.77316">
        <ele>324</ele>
        <time>2015-11-07T01:11:42Z</time>
      </trkpt>
      <trkpt lat="44.65082" lon="1.77402">
        <ele>328</ele>
        <time>2015-11-07T01:13:42Z</time>
      </trkpt>
      <trkpt lat="44.65018" lon="1.77389">
        <ele>330</ele>
        <time>2015-11-07T01:15:42Z</time>
      </trkpt>
      <trkpt lat="44.64982" lon="1.77423">
        <ele>329</ele>
        <time>2015-11-07T01:17:42Z</time>
      </trkpt>
      <trkpt lat="44.64911" lon="1.77419">
        <ele>326</ele>
        <time>2015-11-07T01:19:42Z</time>
      </trkpt>
      <trkpt lat="44.64875" lon="1.77397">
        <ele>324</ele>
        <time>2015-11-07T01:21:42Z</time>
      </trkpt>
      <trkpt lat="44.64725" lon="1.77414">
        <ele>327</ele>
        <time>2015-11-07T01:23:42Z</time>
      </trkpt>
      <trkpt lat="44.6464" lon="1.77517">
        <ele>333</ele>
        <time>2015-11-07T01:25:42Z</time>
      </trkpt>
      <trkpt lat="44.64582" lon="1.77543">
        <ele>334</ele>
        <time>2015-11-07T01:27:42Z</time>
      </trkpt>
      <trkpt lat="44.64389" lon="1.7744">
        <ele>344</ele>
        <time>2015-11-07T01:29:42Z</time>
      </trkpt>
      <trkpt lat="44.64267" lon="1.77414">
        <ele>349</ele>
        <time>2015-11-07T01:31:42Z</time>
      </trkpt>
      <trkpt lat="44.6416" lon="1.77389">
        <ele>350</ele>
        <time>2015-11-07T01:33:42Z</time>
      </trkpt>
    </trkseg>
  </trk>
</gpx>